Time;durP1;ratioP1;P1;durP2;ratioP2;P2;SDS_P1;SDS_P2;PMS_P1;PMS_P2;Temp;Humidity;BMP_temperature;BMP_pressure;BME280_temperature;BME280_humidity;BME280_pressure;Samples;Min_cycle;Max_cycle;Signal;HPM_P1;HPM_P2
2021/12/30 00:02:17;;;;;;;20.50;5.13;;;;;;;11.28;100.00;97506.69;5079919;28;20641;-56
2021/12/30 00:04:43;;;;;;;26.95;8.10;;;;;;;11.15;100.00;97506.47;5079393;28;20032;-56
2021/12/30 00:07:09;;;;;;;25.65;7.00;;;;;;;11.38;100.00;97513.97;5076794;28;20032;-57
2021/12/30 00:09:38;;;;;;;24.08;6.97;;;;;;;11.19;100.00;97518.44;5080766;28;20024;-57
2021/12/30 00:12:05;;;;;;;21.95;5.45;;;;;;;11.36;100.00;97521.03;5080078;28;20756;-58
2021/12/30 00:14:31;;;;;;;20.08;5.90;;;;;;;11.07;100.00;97525.13;5078184;28;20038;-57
2021/12/30 00:16:57;;;;;;;20.15;5.35;;;;;;;11.53;100.00;97529.75;5097871;27;20036;-58
2021/12/30 00:19:22;;;;;;;18.67;4.88;;;;;;;11.27;100.00;97531.13;5060620;28;20107;-57
2021/12/30 00:21:48;;;;;;;20.17;5.20;;;;;;;11.50;100.00;97535.13;5075205;27;20046;-59
2021/12/30 00:24:13;;;;;;;18.60;5.18;;;;;;;11.89;100.00;97536.56;5079762;28;20786;-56
2021/12/30 00:26:39;;;;;;;22.10;5.05;;;;;;;11.72;100.00;97547.91;5081150;28;20702;-56
2021/12/30 00:29:04;;;;;;;18.40;5.45;;;;;;;11.64;100.00;97550.09;5079896;28;20027;-57
2021/12/30 00:31:30;;;;;;;19.48;5.38;;;;;;;11.58;100.00;97557.31;5077676;28;20844;-56
2021/12/30 00:33:56;;;;;;;23.25;6.13;;;;;;;11.43;100.00;97567.72;5075039;28;20032;-56
2021/12/30 00:36:21;;;;;;;21.90;6.35;;;;;;;11.52;100.00;97575.94;5076884;28;20105;-56
2021/12/30 00:38:47;;;;;;;20.80;5.60;;;;;;;11.60;100.00;97575.53;5094225;27;20035;-55
2021/12/30 00:41:13;;;;;;;19.35;5.78;;;;;;;11.60;100.00;97570.31;5076976;28;20579;-56
2021/12/30 00:43:39;;;;;;;20.63;6.25;;;;;;;11.46;100.00;97572.78;5080004;28;20092;-56
2021/12/30 00:46:07;;;;;;;19.73;5.80;;;;;;;11.57;100.00;97571.28;5079820;28;20044;-58
2021/12/30 00:48:33;;;;;;;22.00;6.13;;;;;;;11.68;100.00;97581.19;5078361;28;20498;-60
2021/12/30 00:50:59;;;;;;;20.77;6.20;;;;;;;11.68;100.00;97581.19;5075731;28;20056;-57
2021/12/30 00:53:24;;;;;;;27.52;6.78;;;;;;;11.59;100.00;97579.06;5080530;28;20024;-58
2021/12/30 00:55:50;;;;;;;21.73;6.10;;;;;;;11.98;100.00;97590.97;5073994;28;20044;-58
2021/12/30 00:58:15;;;;;;;19.60;5.28;;;;;;;11.91;100.00;97584.38;5075686;28;20028;-57
2021/12/30 01:00:42;;;;;;;22.92;7.03;;;;;;;11.71;100.00;97583.66;5076677;28;20112;-57
2021/12/30 01:03:09;;;;;;;20.77;5.90;;;;;;;11.85;100.00;97577.69;5075895;28;20028;-56
2021/12/30 01:05:35;;;;;;;25.83;6.68;;;;;;;11.57;100.00;97581.75;5077111;28;20040;-59
2021/12/30 01:08:03;;;;;;;23.08;6.38;;;;;;;12.01;100.00;97590.81;5074963;28;20032;-58
2021/12/30 01:10:29;;;;;;;20.85;6.43;;;;;;;12.20;100.00;97595.06;5076603;28;20032;-58
2021/12/30 01:12:56;;;;;;;18.92;6.72;;;;;;;11.88;100.00;97605.44;5078144;28;20024;-57
2021/12/30 01:15:34;;;;;;;19.92;6.28;;;;;;;11.95;100.00;97612.06;5075217;28;20114;-56
2021/12/30 01:18:23;;;;;;;18.45;5.68;;;;;;;12.10;100.00;97616.47;5078349;28;20161;-56
2021/12/30 01:20:47;;;;;;;27.27;6.68;;;;;;;12.05;100.00;97613.25;5076233;28;20036;-57
2021/12/30 01:23:13;;;;;;;24.45;5.75;;;;;;;12.20;100.00;97610.75;5076687;28;20032;-57
2021/12/30 01:25:39;;;;;;;14.73;4.10;;;;;;;12.29;100.00;97620.72;5076925;28;20063;-55
2021/12/30 01:28:04;;;;;;;17.10;4.93;;;;;;;12.49;100.00;97617.84;5082096;28;20079;-57
2021/12/30 01:30:29;;;;;;;19.00;4.65;;;;;;;12.59;100.00;97625.19;5077944;28;20036;-55
2021/12/30 01:32:55;;;;;;;19.73;4.80;;;;;;;12.81;100.00;97632.69;5076079;28;20066;-56
2021/12/30 01:35:23;;;;;;;22.35;6.07;;;;;;;12.56;100.00;97628.84;5072597;27;20123;-57
2021/12/30 01:37:56;;;;;;;19.58;5.22;;;;;;;12.54;100.00;97631.53;5074371;28;20036;-55
2021/12/30 01:40:21;;;;;;;19.63;5.15;;;;;;;12.36;100.00;97636.94;5074355;28;20046;-56
2021/12/30 01:42:49;;;;;;;21.65;5.50;;;;;;;12.70;100.00;97641.16;5080011;28;20050;-56
2021/12/30 01:45:15;;;;;;;16.15;4.43;;;;;;;12.89;100.00;97646.22;5074454;28;20028;-57
2021/12/30 01:47:47;;;;;;;18.52;4.15;;;;;;;13.13;100.00;97651.00;5076409;28;20039;-56
2021/12/30 01:50:13;;;;;;;15.88;4.13;;;;;;;13.14;100.00;97650.94;5079620;28;20043;-59
2021/12/30 01:52:39;;;;;;;18.90;4.63;;;;;;;12.86;100.00;97655.06;5074987;28;20016;-58
2021/12/30 01:55:05;;;;;;;15.23;3.75;;;;;;;12.89;100.00;97661.91;5077934;28;20404;-55
2021/12/30 01:57:30;;;;;;;20.50;4.65;;;;;;;13.15;100.00;97668.31;5081496;28;20677;-57
2021/12/30 01:59:56;;;;;;;19.55;4.20;;;;;;;12.84;100.00;97672.63;5074097;28;20570;-56
2021/12/30 02:02:21;;;;;;;15.50;3.70;;;;;;;13.35;100.00;97674.22;5075949;28;20036;-56
2021/12/30 02:04:46;;;;;;;16.83;3.78;;;;;;;13.04;100.00;97671.53;5077944;28;20028;-56
2021/12/30 02:07:13;;;;;;;18.98;3.97;;;;;;;12.75;100.00;97675.75;5082115;28;20036;-57
2021/12/30 02:09:39;;;;;;;16.70;3.70;;;;;;;13.09;100.00;97679.97;5096506;27;20028;-56
2021/12/30 02:12:05;;;;;;;16.88;3.50;;;;;;;13.23;100.00;97699.28;5081734;28;20085;-56
2021/12/30 02:14:33;;;;;;;16.00;3.25;;;;;;;13.10;100.00;97710.47;5083681;28;20043;-57
2021/12/30 02:16:58;;;;;;;19.88;3.83;;;;;;;13.12;100.00;97705.13;5079791;28;20060;-56
2021/12/30 02:19:24;;;;;;;17.80;3.45;;;;;;;12.88;100.00;97696.88;5085302;27;20466;-57
2021/12/30 02:21:49;;;;;;;19.88;3.97;;;;;;;13.13;100.00;97706.84;5082499;28;20039;-55
2021/12/30 02:24:15;;;;;;;13.98;3.10;;;;;;;13.20;100.00;97713.41;5076892;28;20040;-58
2021/12/30 02:26:40;;;;;;;17.52;3.53;;;;;;;13.06;100.00;97713.34;5079407;28;20135;-55
2021/12/30 02:29:06;;;;;;;14.25;3.22;;;;;;;13.28;100.00;97720.84;5078915;28;20458;-56
2021/12/30 02:31:31;;;;;;;17.02;3.28;;;;;;;13.06;100.00;97726.44;5081436;28;20044;-57
2021/12/30 02:33:58;;;;;;;15.43;3.28;;;;;;;12.81;100.00;97729.53;5079603;28;20114;-56
2021/12/30 02:36:32;;;;;;;13.32;2.88;;;;;;;13.10;100.00;97733.19;5080266;28;20111;-56
2021/12/30 02:39:01;;;;;;;15.35;3.00;;;;;;;13.04;100.00;97742.22;5078895;28;20031;-56
2021/12/30 02:41:27;;;;;;;11.65;2.72;;;;;;;13.67;100.00;97745.72;5077380;28;20038;-57
2021/12/30 02:43:53;;;;;;;17.55;3.42;;;;;;;12.94;100.00;97759.38;5080013;28;20103;-57
2021/12/30 02:46:23;;;;;;;14.45;3.00;;;;;;;13.08;100.00;97758.59;5079574;28;20084;-57
2021/12/30 02:48:52;;;;;;;15.10;3.10;;;;;;;13.09;100.00;97755.06;5077753;28;20036;-58
2021/12/30 02:51:20;;;;;;;17.45;3.25;;;;;;;13.35;100.00;97763.28;5080627;28;20071;-57
2021/12/30 02:53:45;;;;;;;16.55;3.33;;;;;;;13.59;100.00;97764.50;5079084;28;20134;-57
2021/12/30 02:56:10;;;;;;;15.25;3.08;;;;;;;13.50;100.00;97773.72;5078644;28;20738;-58
2021/12/30 02:58:36;;;;;;;17.02;3.35;;;;;;;13.45;100.00;97777.53;5077076;28;20028;-57
2021/12/30 03:01:09;;;;;;;16.25;3.15;;;;;;;13.12;100.00;97786.31;5077891;28;20592;-58
2021/12/30 03:03:36;;;;;;;15.82;3.28;;;;;;;13.27;100.00;97782.84;5077310;28;20020;-58
2021/12/30 03:06:04;;;;;;;17.00;3.40;;;;;;;13.26;100.00;97781.16;5083413;28;20116;-57
2021/12/30 03:08:30;;;;;;;16.15;3.35;;;;;;;13.28;100.00;97779.28;5078333;28;20032;-56
2021/12/30 03:10:56;;;;;;;15.07;3.30;;;;;;;12.96;100.00;97788.06;5080606;28;20048;-57
2021/12/30 03:13:30;;;;;;;19.45;3.72;;;;;;;13.61;100.00;97793.25;5081687;28;20028;-58
2021/12/30 03:16:00;;;;;;;16.65;3.15;;;;;;;13.62;100.00;97801.03;5073912;28;20060;-56
2021/12/30 03:18:26;;;;;;;13.35;2.60;;;;;;;13.68;100.00;97808.53;5081003;28;20032;-57
2021/12/30 03:20:52;;;;;;;13.38;2.90;;;;;;;13.23;100.00;97802.31;5078975;28;20120;-57
2021/12/30 03:23:18;;;;;;;18.27;3.55;;;;;;;13.35;100.00;97810.44;5078325;28;20115;-57
2021/12/30 03:25:43;;;;;;;15.10;3.00;;;;;;;13.37;100.00;97824.28;5084170;28;20115;-57
2021/12/30 03:28:08;;;;;;;13.57;2.85;;;;;;;13.73;100.00;97825.78;5081244;28;20042;-57
2021/12/30 03:30:34;;;;;;;15.75;3.08;;;;;;;13.07;100.00;97822.38;5080950;27;20124;-58
2021/12/30 03:32:59;;;;;;;17.50;3.35;;;;;;;13.19;100.00;97837.41;5080454;28;20047;-57
2021/12/30 03:35:24;;;;;;;15.23;3.05;;;;;;;13.28;100.00;97829.06;5075250;28;20520;-56
2021/12/30 03:37:50;;;;;;;15.70;3.00;;;;;;;13.46;100.00;97836.88;5082487;28;20662;-57
2021/12/30 03:40:16;;;;;;;18.23;3.67;;;;;;;13.68;100.00;97842.59;5074136;28;20028;-55
2021/12/30 03:42:42;;;;;;;16.05;3.10;;;;;;;13.68;100.00;97850.47;5083613;28;20043;-56
2021/12/30 03:45:10;;;;;;;15.52;2.92;;;;;;;13.83;100.00;97851.38;5080633;28;20044;-56
2021/12/30 03:47:39;;;;;;;17.02;3.17;;;;;;;13.56;100.00;97856.38;5076377;28;20039;-55
2021/12/30 03:50:07;;;;;;;14.38;2.90;;;;;;;13.18;100.00;97856.69;5079282;28;20066;-55
2021/12/30 03:52:32;;;;;;;15.27;2.90;;;;;;;13.48;100.00;97861.22;5080176;28;20070;-56
2021/12/30 03:54:57;;;;;;;16.10;3.20;;;;;;;13.39;100.00;97862.56;5074437;28;20405;-55
2021/12/30 03:57:24;;;;;;;13.68;2.97;;;;;;;13.77;100.00;97874.50;5075599;28;20561;-57
2021/12/30 03:59:49;;;;;;;15.82;3.20;;;;;;;13.87;100.00;97875.66;5078402;28;20039;-55
2021/12/30 04:02:15;;;;;;;14.68;3.08;;;;;;;13.50;100.00;97880.31;5078876;28;20062;-56
2021/12/30 04:04:41;;;;;;;13.40;3.05;;;;;;;13.41;100.00;97878.19;5079573;28;20992;-56
2021/12/30 04:07:06;;;;;;;14.63;3.20;;;;;;;13.50;100.00;97886.41;5093758;27;20059;-56
2021/12/30 04:09:31;;;;;;;14.73;3.05;;;;;;;13.72;100.00;97892.25;5080568;28;20036;-56
2021/12/30 04:11:57;;;;;;;16.80;3.30;;;;;;;13.46;100.00;97881.44;5078007;28;20808;-56
2021/12/30 04:14:26;;;;;;;13.60;2.85;;;;;;;13.67;100.00;97895.09;5082707;28;20080;-55
2021/12/30 04:16:52;;;;;;;20.02;3.83;;;;;;;13.48;100.00;97896.13;5079010;27;20041;-56
2021/12/30 04:19:17;;;;;;;17.52;3.20;;;;;;;13.37;100.00;97897.66;5072770;28;20426;-55
2021/12/30 04:21:42;;;;;;;21.15;3.67;;;;;;;13.23;100.00;97899.22;5078169;28;20494;-55
2021/12/30 04:24:08;;;;;;;19.35;3.67;;;;;;;12.52;100.00;97899.41;5077402;28;20029;-56
2021/12/30 04:26:33;;;;;;;15.65;3.60;;;;;;;12.70;100.00;97892.34;5074705;28;20156;-55
2021/12/30 04:28:58;;;;;;;16.67;3.50;;;;;;;12.69;100.00;97906.38;5076292;28;20112;-56
2021/12/30 04:31:24;;;;;;;17.52;3.10;;;;;;;13.20;100.00;97912.47;5089872;27;20052;-55
2021/12/30 04:33:49;;;;;;;17.45;3.28;;;;;;;13.27;100.00;97912.97;5074479;28;20031;-56
2021/12/30 04:36:15;;;;;;;16.40;2.97;;;;;;;13.33;100.00;97912.69;5081007;28;20055;-56
2021/12/30 04:38:41;;;;;;;15.23;3.30;;;;;;;12.91;100.00;97908.75;5075656;28;20019;-55
2021/12/30 04:41:07;;;;;;;12.98;3.40;;;;;;;12.79;100.00;97925.06;5079503;28;20036;-58
2021/12/30 04:43:32;;;;;;;14.77;3.28;;;;;;;12.88;100.00;97930.69;5078768;28;20028;-58
2021/12/30 04:46:00;;;;;;;14.52;3.35;;;;;;;12.84;100.00;97931.75;5081946;28;20104;-55
2021/12/30 04:48:26;;;;;;;17.70;3.70;;;;;;;12.73;100.00;97937.53;5081637;28;20024;-54
2021/12/30 04:50:51;;;;;;;15.60;3.55;;;;;;;12.78;100.00;97932.09;5078896;28;20101;-58
2021/12/30 04:53:18;;;;;;;21.02;4.25;;;;;;;12.69;100.00;97924.69;5079245;28;20024;-55
2021/12/30 04:55:44;;;;;;;17.48;3.50;;;;;;;12.71;100.00;97935.94;5077006;28;20036;-55
2021/12/30 04:58:10;;;;;;;17.90;3.63;;;;;;;13.00;100.00;97936.22;5082229;28;20097;-55
2021/12/30 05:00:36;;;;;;;17.98;3.53;;;;;;;13.13;100.00;97960.00;5082066;28;20563;-55
2021/12/30 05:03:09;;;;;;;12.27;2.92;;;;;;;13.11;100.00;97966.16;5078552;28;20030;-57
2021/12/30 05:05:43;;;;;;;15.38;3.20;;;;;;;13.16;100.00;97963.31;5078309;28;20039;-55
2021/12/30 05:08:09;;;;;;;17.00;3.40;;;;;;;13.21;100.00;97965.66;5079848;28;20055;-55
2021/12/30 05:10:35;;;;;;;16.45;3.60;;;;;;;13.55;100.00;97970.00;5076712;28;20047;-56
2021/12/30 05:13:02;;;;;;;17.05;3.47;;;;;;;13.78;100.00;97973.16;5077485;28;20673;-56
2021/12/30 05:15:28;;;;;;;16.25;3.75;;;;;;;13.45;100.00;97972.28;5078225;28;20561;-56
2021/12/30 05:17:54;;;;;;;15.15;3.25;;;;;;;13.27;100.00;97981.94;5076970;28;20063;-56
2021/12/30 05:20:19;;;;;;;14.70;3.00;;;;;;;13.21;100.00;97976.97;5075122;28;20013;-57
2021/12/30 05:22:44;;;;;;;16.58;3.40;;;;;;;13.18;100.00;97982.41;5077348;28;20027;-56
2021/12/30 05:25:11;;;;;;;21.13;4.13;;;;;;;12.91;100.00;97975.03;5075906;28;20039;-55
2021/12/30 05:27:37;;;;;;;17.98;3.53;;;;;;;13.03;100.00;97972.69;5077013;28;20030;-57
2021/12/30 05:30:05;;;;;;;11.60;2.78;;;;;;;12.78;100.00;97970.50;5079643;28;20452;-55
2021/12/30 05:32:31;;;;;;;18.02;3.72;;;;;;;12.85;100.00;97977.13;5075650;28;20046;-55
2021/12/30 05:34:56;;;;;;;18.58;3.70;;;;;;;12.99;100.00;97973.78;5069885;28;20028;-55
2021/12/30 05:37:21;;;;;;;15.52;3.40;;;;;;;12.88;100.00;97975.19;5078908;28;20040;-55
2021/12/30 05:39:47;;;;;;;17.38;3.47;;;;;;;12.79;100.00;97980.91;5076366;28;20458;-56
2021/12/30 05:42:12;;;;;;;17.88;3.35;;;;;;;13.15;100.00;97982.56;5076397;28;20164;-55
2021/12/30 05:44:37;;;;;;;16.67;3.25;;;;;;;13.26;100.00;97988.06;5076542;28;20447;-55
2021/12/30 05:47:03;;;;;;;15.48;3.17;;;;;;;12.97;100.00;98000.03;5075090;28;20618;-56
2021/12/30 05:49:29;;;;;;;17.63;3.28;;;;;;;12.82;100.00;98012.13;5081482;28;20172;-57
2021/12/30 05:51:54;;;;;;;16.52;3.40;;;;;;;13.27;100.00;98015.97;5075701;28;20478;-56
2021/12/30 05:54:19;;;;;;;19.20;3.70;;;;;;;13.11;100.00;98028.16;5078870;28;20056;-57
2021/12/30 05:56:45;;;;;;;21.73;4.10;;;;;;;12.99;100.00;98031.38;5072945;28;20064;-55
2021/12/30 05:59:10;;;;;;;16.63;3.22;;;;;;;13.27;100.00;98038.69;5074320;28;20074;-56
2021/12/30 06:01:36;;;;;;;15.65;3.15;;;;;;;13.32;100.00;98046.34;5077965;28;20115;-55
2021/12/30 06:04:01;;;;;;;16.92;3.45;;;;;;;13.10;100.00;98047.41;5078194;28;20055;-57
2021/12/30 06:06:26;;;;;;;13.55;3.00;;;;;;;13.42;100.00;98050.19;5077340;28;20120;-57
2021/12/30 06:08:53;;;;;;;20.52;3.60;;;;;;;13.30;100.00;98049.88;5077148;28;20797;-57
2021/12/30 06:11:18;;;;;;;21.73;3.88;;;;;;;13.08;100.00;98049.25;5073038;28;20071;-57
2021/12/30 06:13:44;;;;;;;13.20;3.25;;;;;;;12.79;100.00;98056.81;5077750;28;20062;-57
2021/12/30 06:16:09;;;;;;;17.08;3.38;;;;;;;12.97;100.00;98056.81;5079226;28;20119;-56
2021/12/30 06:18:34;;;;;;;19.75;3.58;;;;;;;12.77;100.00;98049.94;5074392;28;20625;-57
2021/12/30 06:21:00;;;;;;;18.63;3.58;;;;;;;12.89;100.00;98039.72;5074713;28;20040;-59
2021/12/30 06:23:25;;;;;;;26.30;4.20;;;;;;;13.10;100.00;98048.28;5073545;28;20445;-57
2021/12/30 06:25:50;;;;;;;14.40;3.67;;;;;;;13.25;100.00;98045.78;5076534;28;20131;-57
2021/12/30 06:28:16;;;;;;;23.92;5.68;;;;;;;12.93;100.00;98038.63;5077785;28;20513;-57
2021/12/30 06:30:41;;;;;;;25.83;7.72;;;;;;;13.02;100.00;98033.88;5077287;28;20036;-57
2021/12/30 06:33:07;;;;;;;24.67;7.35;;;;;;;13.15;100.00;98047.19;5075429;28;20024;-57
2021/12/30 06:35:34;;;;;;;19.42;4.38;;;;;;;13.24;100.00;98049.34;5078869;28;20064;-56
2021/12/30 06:38:00;;;;;;;16.98;4.65;;;;;;;13.15;100.00;98045.41;5076242;28;20036;-58
2021/12/30 06:40:26;;;;;;;18.60;4.10;;;;;;;13.20;100.00;98055.66;5082161;28;20024;-56
2021/12/30 06:42:52;;;;;;;18.75;4.35;;;;;;;13.17;100.00;98051.41;5075636;28;20034;-57
2021/12/30 06:45:17;;;;;;;22.20;4.97;;;;;;;12.86;100.00;98050.31;5073484;28;20035;-56
2021/12/30 06:47:44;;;;;;;21.00;5.70;;;;;;;13.18;100.00;98055.72;5073348;28;20063;-58
2021/12/30 06:50:12;;;;;;;21.88;5.70;;;;;;;12.84;100.00;98052.16;5078824;28;20020;-57
2021/12/30 06:52:37;;;;;;;21.83;4.32;;;;;;;12.49;100.00;98044.25;5076412;28;20039;-57
2021/12/30 06:55:03;;;;;;;18.50;3.85;;;;;;;12.72;100.00;98052.78;5080444;28;20028;-55
2021/12/30 06:57:28;;;;;;;18.45;3.88;;;;;;;12.63;100.00;98055.84;5077892;28;20030;-55
2021/12/30 06:59:54;;;;;;;16.83;3.50;;;;;;;13.08;100.00;98054.50;5079601;28;20027;-54
2021/12/30 07:02:19;;;;;;;19.90;4.13;;;;;;;12.69;100.00;98048.53;5082056;28;20582;-56
2021/12/30 07:04:45;;;;;;;20.70;4.10;;;;;;;12.91;100.00;98053.56;5080917;28;20081;-57
2021/12/30 07:07:10;;;;;;;17.20;3.80;;;;;;;12.71;100.00;98054.53;5078735;28;20065;-54
2021/12/30 07:09:35;;;;;;;20.23;4.22;;;;;;;12.94;100.00;98057.81;5077772;28;20035;-56
2021/12/30 07:12:01;;;;;;;23.48;4.45;;;;;;;13.02;100.00;98065.28;5077221;27;20592;-55
2021/12/30 07:14:26;;;;;;;11.60;2.88;;;;;;;12.89;100.00;98071.13;5081555;28;20032;-56
2021/12/30 07:16:52;;;;;;;21.23;4.32;;;;;;;12.86;100.00;98071.25;5079148;28;20620;-57
2021/12/30 07:19:17;;;;;;;21.88;3.92;;;;;;;12.76;100.00;98085.75;5083267;28;20110;-55
2021/12/30 07:21:43;;;;;;;25.83;4.93;;;;;;;12.82;100.00;98079.34;5077480;28;20520;-58
2021/12/30 07:24:09;;;;;;;19.35;4.00;;;;;;;12.83;100.00;98086.25;5079243;28;20102;-59
2021/12/30 07:26:35;;;;;;;20.80;4.25;;;;;;;12.50;100.00;98090.44;5083298;28;20123;-56
2021/12/30 07:29:01;;;;;;;24.40;4.60;;;;;;;12.39;100.00;98090.13;5072202;28;20028;-56
2021/12/30 07:31:27;;;;;;;22.38;4.97;;;;;;;12.30;100.00;98085.31;5079978;28;20051;-57
2021/12/30 07:33:52;;;;;;;19.65;4.38;;;;;;;12.40;100.00;98099.63;5099189;27;20031;-56
2021/12/30 07:36:18;;;;;;;19.45;3.97;;;;;;;12.52;100.00;98099.06;5079365;28;20043;-56
2021/12/30 07:38:43;;;;;;;24.42;4.88;;;;;;;12.69;100.00;98097.41;5076907;28;20032;-57
2021/12/30 07:41:09;;;;;;;17.58;3.60;;;;;;;12.59;100.00;98099.63;5082086;28;20083;-56
2021/12/30 07:43:34;;;;;;;17.30;4.32;;;;;;;12.27;100.00;98098.53;5080152;28;20047;-59
2021/12/30 07:46:00;;;;;;;22.50;4.72;;;;;;;12.37;100.00;98110.25;5081141;28;20874;-56
2021/12/30 07:48:26;;;;;;;20.35;4.35;;;;;;;12.57;100.00;98100.63;5080477;28;20021;-57
2021/12/30 07:50:52;;;;;;;20.50;3.97;;;;;;;12.69;100.00;98100.03;5094103;27;20094;-57
2021/12/30 07:53:17;;;;;;;22.17;4.78;;;;;;;12.40;100.00;98102.25;5076230;28;20024;-58
2021/12/30 07:55:42;;;;;;;20.13;4.35;;;;;;;12.70;100.00;98107.81;5080955;28;20043;-56
2021/12/30 07:58:08;;;;;;;17.52;3.75;;;;;;;12.56;100.00;98109.41;5083478;28;20046;-57
2021/12/30 08:00:34;;;;;;;21.95;4.93;;;;;;;12.49;100.00;98108.84;5080744;28;20035;-57
2021/12/30 08:03:00;;;;;;;25.63;4.85;;;;;;;12.84;100.00;98109.75;5078555;28;20477;-56
2021/12/30 08:05:27;;;;;;;21.13;4.63;;;;;;;12.72;100.00;98111.22;5077259;28;20449;-58
2021/12/30 08:07:53;;;;;;;22.92;5.10;;;;;;;12.62;100.00;98109.09;5078401;28;20024;-57
2021/12/30 08:10:19;;;;;;;21.38;4.80;;;;;;;12.69;100.00;98107.88;5076725;28;20035;-57
2021/12/30 08:12:46;;;;;;;19.80;4.72;;;;;;;12.87;100.00;98114.84;5075848;28;20028;-57
2021/12/30 08:15:13;;;;;;;23.67;5.75;;;;;;;12.80;100.00;98117.84;5085972;28;20027;-57
2021/12/30 08:17:40;;;;;;;19.90;5.13;;;;;;;12.84;100.00;98115.00;5079590;28;20040;-57
2021/12/30 08:20:07;;;;;;;20.92;5.10;;;;;;;12.72;100.00;98111.22;5076846;28;20031;-56
2021/12/30 08:22:33;;;;;;;23.20;6.30;;;;;;;12.57;100.00;98103.22;5079399;28;20047;-58
2021/12/30 08:24:59;;;;;;;22.35;5.47;;;;;;;12.65;100.00;98108.97;5073170;28;20032;-57
2021/12/30 08:27:24;;;;;;;17.83;4.20;;;;;;;12.91;100.00;98099.84;5078166;28;20039;-58
2021/12/30 08:29:50;;;;;;;23.48;6.13;;;;;;;12.44;100.00;98105.56;5075750;28;20072;-57
2021/12/30 08:32:16;;;;;;;27.25;4.97;;;;;;;12.38;100.00;98104.09;5077457;28;20075;-57
2021/12/30 08:34:44;;;;;;;18.75;4.63;;;;;;;12.75;100.00;98104.97;5079912;28;20028;-57
2021/12/30 08:37:11;;;;;;;21.00;5.70;;;;;;;12.13;100.00;98114.81;5079384;28;20042;-57
2021/12/30 08:39:37;;;;;;;19.02;5.57;;;;;;;12.48;100.00;98118.47;5063600;28;20127;-57
2021/12/30 08:42:05;;;;;;;22.35;5.55;;;;;;;12.32;100.00;98117.47;5079658;28;20071;-57
2021/12/30 08:44:31;;;;;;;24.00;6.03;;;;;;;12.30;100.00;98122.78;5078812;28;20445;-58
2021/12/30 08:46:56;;;;;;;21.88;6.15;;;;;;;12.43;100.00;98120.44;5076579;28;20036;-56
2021/12/30 08:49:23;;;;;;;17.15;4.78;;;;;;;12.76;100.00;98111.91;5076313;28;20031;-57
2021/12/30 08:51:49;;;;;;;25.67;7.00;;;;;;;12.67;100.00;98113.19;5078716;28;20089;-56
2021/12/30 08:54:14;;;;;;;23.35;6.35;;;;;;;12.78;100.00;98114.47;5095106;27;20032;-58
2021/12/30 08:56:40;;;;;;;23.30;5.00;;;;;;;13.02;100.00;98117.66;5075735;28;20092;-56
2021/12/30 08:59:05;;;;;;;20.58;6.25;;;;;;;12.91;100.00;98112.94;5080109;28;20035;-58
2021/12/30 09:01:31;;;;;;;20.55;5.63;;;;;;;13.15;100.00;98116.13;5072961;28;20059;-56
2021/12/30 09:03:56;;;;;;;16.67;5.20;;;;;;;12.83;100.00;98118.56;5076686;28;20731;-57
2021/12/30 09:06:21;;;;;;;22.95;6.97;;;;;;;12.71;100.00;98113.91;5081284;28;20043;-56
2021/12/30 09:08:47;;;;;;;23.60;7.22;;;;;;;13.02;100.00;98117.66;5078861;28;20382;-55
2021/12/30 09:11:13;;;;;;;21.85;6.13;;;;;;;13.39;100.00;98118.47;5077730;28;20524;-57
2021/12/30 09:13:38;;;;;;;23.30;7.00;;;;;;;13.14;100.00;98117.06;5080617;28;20032;-56
2021/12/30 09:16:03;;;;;;;20.20;5.72;;;;;;;13.32;100.00;98115.31;5077243;28;20051;-57
2021/12/30 09:18:29;;;;;;;17.08;4.78;;;;;;;13.17;100.00;98116.88;5077258;28;20024;-56
2021/12/30 09:20:55;;;;;;;20.02;5.18;;;;;;;13.31;100.00;98108.38;5077883;28;20810;-55
2021/12/30 09:23:21;;;;;;;24.70;5.63;;;;;;;12.99;100.00;98112.56;5079537;28;20031;-57
2021/12/30 09:25:46;;;;;;;16.15;4.32;;;;;;;13.00;100.00;98116.88;5080065;28;20036;-56
2021/12/30 09:28:12;;;;;;;24.30;5.18;;;;;;;13.39;100.00;98123.72;5077118;28;20505;-57
2021/12/30 09:30:40;;;;;;;24.42;6.97;;;;;;;13.33;100.00;98118.78;5079458;28;20326;-56
2021/12/30 09:33:06;;;;;;;19.20;4.28;;;;;;;13.35;100.00;98124.78;5071567;28;20032;-55
2021/12/30 09:35:32;;;;;;;18.67;4.18;;;;;;;13.45;100.00;98120.78;5075843;28;20569;-55
2021/12/30 09:37:58;;;;;;;15.02;3.67;;;;;;;13.31;100.00;98118.88;5080916;28;20019;-56
2021/12/30 09:40:24;;;;;;;19.40;4.25;;;;;;;13.86;100.00;98120.44;5078300;28;20020;-56
2021/12/30 09:42:54;;;;;;;22.52;4.40;;;;;;;13.74;100.00;98115.81;5079900;28;20032;-58
2021/12/30 09:45:20;;;;;;;16.00;3.72;;;;;;;13.40;100.00;98128.00;5081895;28;20025;-56
2021/12/30 09:47:52;;;;;;;14.02;3.10;;;;;;;13.49;100.00;98127.53;5084955;28;20470;-56
2021/12/30 09:50:20;;;;;;;13.60;3.28;;;;;;;13.49;100.00;98124.91;5074943;28;20706;-56
2021/12/30 09:52:46;;;;;;;15.32;3.15;;;;;;;13.71;100.00;98126.44;5074202;28;20114;-58
2021/12/30 09:55:12;;;;;;;17.80;3.75;;;;;;;13.32;100.00;98130.19;5075005;28;20095;-55
2021/12/30 09:57:37;;;;;;;16.40;3.35;;;;;;;13.62;100.00;98130.38;5077891;28;20024;-57
2021/12/30 10:00:08;;;;;;;16.77;3.55;;;;;;;13.54;100.00;98130.78;5077277;28;20032;-58
2021/12/30 10:02:34;;;;;;;16.10;3.35;;;;;;;13.55;100.00;98137.72;5076797;28;20855;-55
2021/12/30 10:05:08;;;;;;;16.60;3.20;;;;;;;13.77;100.00;98141.88;5077417;28;20037;-56
2021/12/30 10:07:33;;;;;;;19.00;4.32;;;;;;;13.97;100.00;98127.69;5074981;28;20036;-58
2021/12/30 10:10:03;;;;;;;15.10;3.70;;;;;;;13.71;100.00;98132.56;5075322;28;20019;-55
2021/12/30 10:12:47;;;;;;;19.38;3.72;;;;;;;14.02;100.00;98142.28;5070966;28;20148;-55
2021/12/30 10:15:12;;;;;;;21.15;4.40;;;;;;;13.85;100.00;98144.94;5072193;28;20024;-56
2021/12/30 10:17:38;;;;;;;15.68;3.22;;;;;;;14.22;100.00;98143.84;5073988;28;20039;-57
2021/12/30 10:20:25;;;;;;;14.00;3.10;;;;;;;14.44;100.00;98140.91;5077763;28;20386;-57
2021/12/30 10:22:52;;;;;;;16.27;4.00;;;;;;;14.00;100.00;98145.91;5075198;28;20098;-58
2021/12/30 10:25:24;;;;;;;14.35;3.28;;;;;;;14.73;100.00;98145.53;5080506;28;20020;-55
2021/12/30 10:27:50;;;;;;;14.02;3.13;;;;;;;15.27;100.00;98142.47;5074988;28;20680;-57
2021/12/30 10:30:32;;;;;;;13.88;3.30;;;;;;;14.84;100.00;98143.16;5078150;28;20021;-56
2021/12/30 10:33:19;;;;;;;15.45;3.10;;;;;;;15.52;100.00;98142.72;5066299;28;20042;-55
2021/12/30 10:35:44;;;;;;;15.55;3.20;;;;;;;15.20;100.00;98148.09;5082941;28;20113;-55
2021/12/30 10:38:11;;;;;;;13.32;3.13;;;;;;;14.89;100.00;98150.75;5076370;28;20382;-54
2021/12/30 10:40:40;;;;;;;16.42;3.35;;;;;;;15.21;100.00;98146.31;5074494;28;20039;-54
2021/12/30 10:43:38;;;;;;;14.68;3.03;;;;;;;15.22;100.00;98145.38;5076206;28;20028;-57
2021/12/30 10:46:13;;;;;;;15.23;3.35;;;;;;;16.19;100.00;98142.25;5078827;28;20032;-56
2021/12/30 10:48:59;;;;;;;14.32;3.40;;;;;;;16.60;100.00;98154.66;5076017;28;20443;-55
2021/12/30 10:51:35;;;;;;;20.60;3.97;;;;;;;16.36;100.00;98155.25;5075182;28;20137;-58
2021/12/30 10:54:28;;;;;;;18.55;3.67;;;;;;;16.46;100.00;98157.28;5076943;28;20028;-56
2021/12/30 10:57:04;;;;;;;21.02;4.07;;;;;;;16.92;100.00;98152.59;5067197;28;20059;-56
2021/12/30 10:59:32;;;;;;;14.80;3.13;;;;;;;16.31;100.00;98157.31;5074853;28;20034;-56
2021/12/30 11:02:08;;;;;;;19.17;3.47;;;;;;;16.82;100.00;98156.75;5074650;28;20036;-55
2021/12/30 11:04:37;;;;;;;14.35;3.10;;;;;;;17.38;100.00;98158.47;5082455;28;20037;-56
2021/12/30 11:07:03;;;;;;;12.98;3.08;;;;;;;17.14;100.00;98154.69;5080661;28;20055;-56
2021/12/30 11:09:29;;;;;;;11.23;2.75;;;;;;;17.67;100.00;98151.25;5082272;28;20028;-57
2021/12/30 11:11:58;;;;;;;11.07;2.72;;;;;;;16.33;100.00;98155.41;5079182;28;20039;-56
2021/12/30 11:14:34;;;;;;;10.77;2.72;;;;;;;16.27;100.00;98161.06;5079517;28;20452;-56
2021/12/30 11:17:17;;;;;;;12.50;3.13;;;;;;;17.18;100.00;98154.50;5072890;28;20040;-57